Sasabe, Arizona
Current Conditions -  °F | °C
As of 12:54 AM on Monday 20 Oct 2014 (Local Time) from KOLS Reporting Station
Clear Clear  
Wind Chill: 55°   Ceiling: Unl
Heat Index: 55°   Visibility: 10mi
Dew Point: 47°   Wind: 5mph
Humidity: 74%   Direction: 150°SSE
Pressure: 29.99"   Gusts: NA
Location:  31.49°N, 111.54°W
Report Text: KOLS 200754Z AUTO 15004KT 10SM CLR 13/08 A2999 RMK AO2 SLP098 T01280083
Loading
Personal Weather Stations






























Interactive Weather Map
Tropical Storm Tracking
New forecast layout! Learn more

10-Day Weather Forecast

Advertisements
Track Severe Weather on mobile